sensor_id;sensor_type;location;lat;lon;timestamp;temperature;humidity
4312;DHT22;2169;49.086;9.284;2023-06-26T00:02:18;22.20;46.80
4312;DHT22;2169;49.086;9.284;2023-06-26T00:04:45;22.20;47.10
4312;DHT22;2169;49.086;9.284;2023-06-26T00:07:12;22.10;47.20
4312;DHT22;2169;49.086;9.284;2023-06-26T00:09:39;22.00;47.30
4312;DHT22;2169;49.086;9.284;2023-06-26T00:12:08;22.00;47.50
4312;DHT22;2169;49.086;9.284;2023-06-26T00:14:35;21.90;47.60
4312;DHT22;2169;49.086;9.284;2023-06-26T00:17:02;21.90;47.70
4312;DHT22;2169;49.086;9.284;2023-06-26T00:19:29;21.80;47.90
4312;DHT22;2169;49.086;9.284;2023-06-26T00:21:56;21.80;48.10
4312;DHT22;2169;49.086;9.284;2023-06-26T00:24:23;21.70;48.10
4312;DHT22;2169;49.086;9.284;2023-06-26T00:26:50;21.60;48.10
4312;DHT22;2169;49.086;9.284;2023-06-26T00:29:18;21.60;48.20
4312;DHT22;2169;49.086;9.284;2023-06-26T00:31:45;21.50;48.10
4312;DHT22;2169;49.086;9.284;2023-06-26T00:34:11;21.50;48.20
4312;DHT22;2169;49.086;9.284;2023-06-26T00:36:38;21.50;48.20
4312;DHT22;2169;49.086;9.284;2023-06-26T00:39:08;21.40;48.20
4312;DHT22;2169;49.086;9.284;2023-06-26T00:41:36;21.40;48.20
4312;DHT22;2169;49.086;9.284;2023-06-26T00:44:03;21.30;48.20
4312;DHT22;2169;49.086;9.284;2023-06-26T00:46:33;21.20;48.30
4312;DHT22;2169;49.086;9.284;2023-06-26T00:49:03;21.20;48.50
4312;DHT22;2169;49.086;9.284;2023-06-26T00:51:30;21.20;48.60
4312;DHT22;2169;49.086;9.284;2023-06-26T00:53:58;21.10;48.60
4312;DHT22;2169;49.086;9.284;2023-06-26T00:56:25;21.10;48.70
4312;DHT22;2169;49.086;9.284;2023-06-26T00:58:52;21.00;48.70
4312;DHT22;2169;49.086;9.284;2023-06-26T01:01:19;21.00;48.70
4312;DHT22;2169;49.086;9.284;2023-06-26T01:03:50;20.90;48.70
4312;DHT22;2169;49.086;9.284;2023-06-26T01:06:19;20.90;48.70
4312;DHT22;2169;49.086;9.284;2023-06-26T01:08:46;20.90;48.80
4312;DHT22;2169;49.086;9.284;2023-06-26T01:11:14;20.80;48.70
4312;DHT22;2169;49.086;9.284;2023-06-26T01:13:42;20.80;48.80
4312;DHT22;2169;49.086;9.284;2023-06-26T01:16:10;20.70;48.80
4312;DHT22;2169;49.086;9.284;2023-06-26T01:18:39;20.70;48.80
4312;DHT22;2169;49.086;9.284;2023-06-26T01:21:11;20.60;48.80
4312;DHT22;2169;49.086;9.284;2023-06-26T01:23:49;20.60;48.90
4312;DHT22;2169;49.086;9.284;2023-06-26T01:26:22;20.60;48.90
4312;DHT22;2169;49.086;9.284;2023-06-26T01:28:50;20.50;48.90
4312;DHT22;2169;49.086;9.284;2023-06-26T01:31:19;20.50;49.00
4312;DHT22;2169;49.086;9.284;2023-06-26T01:33:47;20.50;49.10
4312;DHT22;2169;49.086;9.284;2023-06-26T01:36:14;20.40;49.10
4312;DHT22;2169;49.086;9.284;2023-06-26T01:38:40;20.30;49.10
4312;DHT22;2169;49.086;9.284;2023-06-26T01:41:07;20.30;49.30
4312;DHT22;2169;49.086;9.284;2023-06-26T01:43:43;20.30;49.30
4312;DHT22;2169;49.086;9.284;2023-06-26T01:46:18;20.20;49.40
4312;DHT22;2169;49.086;9.284;2023-06-26T01:48:52;20.20;49.50
4312;DHT22;2169;49.086;9.284;2023-06-26T01:51:30;20.10;49.40
4312;DHT22;2169;49.086;9.284;2023-06-26T01:53:59;20.10;49.50
4312;DHT22;2169;49.086;9.284;2023-06-26T01:56:28;20.00;49.60
4312;DHT22;2169;49.086;9.284;2023-06-26T01:58:57;20.00;49.70
4312;DHT22;2169;49.086;9.284;2023-06-26T02:01:26;19.90;49.70
4312;DHT22;2169;49.086;9.284;2023-06-26T02:03:53;19.90;49.80
4312;DHT22;2169;49.086;9.284;2023-06-26T02:06:20;19.80;49.90
4312;DHT22;2169;49.086;9.284;2023-06-26T02:08:47;19.80;50.10
4312;DHT22;2169;49.086;9.284;2023-06-26T02:11:14;19.80;50.80
4312;DHT22;2169;49.086;9.284;2023-06-26T02:13:41;19.70;50.10
4312;DHT22;2169;49.086;9.284;2023-06-26T02:16:10;19.70;50.20
4312;DHT22;2169;49.086;9.284;2023-06-26T02:18:37;19.60;50.30
4312;DHT22;2169;49.086;9.284;2023-06-26T02:21:04;19.60;50.40
4312;DHT22;2169;49.086;9.284;2023-06-26T02:23:31;19.50;50.50
4312;DHT22;2169;49.086;9.284;2023-06-26T02:25:58;19.50;50.60
4312;DHT22;2169;49.086;9.284;2023-06-26T02:28:25;19.50;50.60
4312;DHT22;2169;49.086;9.284;2023-06-26T02:30:52;19.40;50.70
4312;DHT22;2169;49.086;9.284;2023-06-26T02:33:20;19.40;50.80
4312;DHT22;2169;49.086;9.284;2023-06-26T02:35:47;19.40;50.90
4312;DHT22;2169;49.086;9.284;2023-06-26T02:38:15;19.40;51.00
4312;DHT22;2169;49.086;9.284;2023-06-26T02:40:42;19.30;50.90
4312;DHT22;2169;49.086;9.284;2023-06-26T02:43:09;19.30;51.10
4312;DHT22;2169;49.086;9.284;2023-06-26T02:45:36;19.20;51.10
4312;DHT22;2169;49.086;9.284;2023-06-26T02:48:04;19.20;51.20
4312;DHT22;2169;49.086;9.284;2023-06-26T02:50:32;19.20;51.30
4312;DHT22;2169;49.086;9.284;2023-06-26T02:52:59;19.10;51.30
4312;DHT22;2169;49.086;9.284;2023-06-26T02:55:27;19.10;51.30
4312;DHT22;2169;49.086;9.284;2023-06-26T02:57:54;19.10;51.50
4312;DHT22;2169;49.086;9.284;2023-06-26T03:00:21;19.00;51.50
4312;DHT22;2169;49.086;9.284;2023-06-26T03:02:48;19.00;51.60
4312;DHT22;2169;49.086;9.284;2023-06-26T03:05:15;19.00;51.70
4312;DHT22;2169;49.086;9.284;2023-06-26T03:07:43;19.00;51.80
4312;DHT22;2169;49.086;9.284;2023-06-26T03:10:10;18.90;51.80
4312;DHT22;2169;49.086;9.284;2023-06-26T03:12:40;18.90;51.90
4312;DHT22;2169;49.086;9.284;2023-06-26T03:15:07;18.80;51.90
4312;DHT22;2169;49.086;9.284;2023-06-26T03:17:34;18.80;52.00
4312;DHT22;2169;49.086;9.284;2023-06-26T03:20:01;18.80;52.10
4312;DHT22;2169;49.086;9.284;2023-06-26T03:22:31;18.80;52.20
4312;DHT22;2169;49.086;9.284;2023-06-26T03:24:59;18.70;52.20
4312;DHT22;2169;49.086;9.284;2023-06-26T03:27:26;18.80;52.30
4312;DHT22;2169;49.086;9.284;2023-06-26T03:29:56;18.70;52.30
4312;DHT22;2169;49.086;9.284;2023-06-26T03:32:24;18.60;52.30
4312;DHT22;2169;49.086;9.284;2023-06-26T03:34:51;18.60;52.40
4312;DHT22;2169;49.086;9.284;2023-06-26T03:37:18;18.60;52.50
4312;DHT22;2169;49.086;9.284;2023-06-26T03:39:46;18.50;52.50
4312;DHT22;2169;49.086;9.284;2023-06-26T03:42:14;18.50;52.60
4312;DHT22;2169;49.086;9.284;2023-06-26T03:44:41;18.50;52.70
4312;DHT22;2169;49.086;9.284;2023-06-26T03:47:08;18.50;52.70
4312;DHT22;2169;49.086;9.284;2023-06-26T03:49:35;18.50;52.80
4312;DHT22;2169;49.086;9.284;2023-06-26T03:52:02;18.40;52.80
4312;DHT22;2169;49.086;9.284;2023-06-26T03:54:28;18.40;53.00
4312;DHT22;2169;49.086;9.284;2023-06-26T03:56:55;18.40;53.00
4312;DHT22;2169;49.086;9.284;2023-06-26T03:59:24;18.40;53.10
4312;DHT22;2169;49.086;9.284;2023-06-26T04:01:51;18.30;53.10
4312;DHT22;2169;49.086;9.284;2023-06-26T04:04:18;18.30;53.20
4312;DHT22;2169;49.086;9.284;2023-06-26T04:06:45;18.30;53.30
4312;DHT22;2169;49.086;9.284;2023-06-26T04:09:12;18.30;53.40
4312;DHT22;2169;49.086;9.284;2023-06-26T04:11:39;18.30;53.50
4312;DHT22;2169;49.086;9.284;2023-06-26T04:14:05;18.30;53.60
4312;DHT22;2169;49.086;9.284;2023-06-26T04:16:34;18.20;54.30
4312;DHT22;2169;49.086;9.284;2023-06-26T04:19:00;18.20;53.80
4312;DHT22;2169;49.086;9.284;2023-06-26T04:21:28;18.20;53.80
4312;DHT22;2169;49.086;9.284;2023-06-26T04:23:55;18.20;53.90
4312;DHT22;2169;49.086;9.284;2023-06-26T04:26:22;18.20;54.00
4312;DHT22;2169;49.086;9.284;2023-06-26T04:28:49;18.20;54.00
4312;DHT22;2169;49.086;9.284;2023-06-26T04:31:15;18.20;54.20
4312;DHT22;2169;49.086;9.284;2023-06-26T04:33:44;18.20;54.20
4312;DHT22;2169;49.086;9.284;2023-06-26T04:36:16;18.20;54.40
4312;DHT22;2169;49.086;9.284;2023-06-26T04:38:45;18.20;54.50
4312;DHT22;2169;49.086;9.284;2023-06-26T04:41:13;18.20;54.60
4312;DHT22;2169;49.086;9.284;2023-06-26T04:43:40;18.20;54.50
4312;DHT22;2169;49.086;9.284;2023-06-26T04:46:07;18.20;54.50
4312;DHT22;2169;49.086;9.284;2023-06-26T04:48:34;18.30;54.60
4312;DHT22;2169;49.086;9.284;2023-06-26T04:51:02;18.30;54.60
4312;DHT22;2169;49.086;9.284;2023-06-26T04:53:30;18.30;54.70
4312;DHT22;2169;49.086;9.284;2023-06-26T04:55:58;18.30;54.70
4312;DHT22;2169;49.086;9.284;2023-06-26T04:58:24;18.40;54.80
4312;DHT22;2169;49.086;9.284;2023-06-26T05:00:51;18.40;54.80
4312;DHT22;2169;49.086;9.284;2023-06-26T05:03:18;18.40;54.90
4312;DHT22;2169;49.086;9.284;2023-06-26T05:05:46;18.50;55.00
4312;DHT22;2169;49.086;9.284;2023-06-26T05:08:21;18.50;55.10
4312;DHT22;2169;49.086;9.284;2023-06-26T05:10:48;18.60;55.30
4312;DHT22;2169;49.086;9.284;2023-06-26T05:13:16;18.60;55.30
4312;DHT22;2169;49.086;9.284;2023-06-26T05:15:45;18.60;55.30
4312;DHT22;2169;49.086;9.284;2023-06-26T05:18:12;18.70;55.40
4312;DHT22;2169;49.086;9.284;2023-06-26T05:20:40;18.70;55.50
4312;DHT22;2169;49.086;9.284;2023-06-26T05:23:11;18.80;55.50
4312;DHT22;2169;49.086;9.284;2023-06-26T05:25:41;18.90;55.60
4312;DHT22;2169;49.086;9.284;2023-06-26T05:28:10;19.00;55.40
4312;DHT22;2169;49.086;9.284;2023-06-26T05:30:39;19.00;55.30
4312;DHT22;2169;49.086;9.284;2023-06-26T05:33:08;19.10;55.20
4312;DHT22;2169;49.086;9.284;2023-06-26T05:35:37;19.20;55.10
4312;DHT22;2169;49.086;9.284;2023-06-26T05:38:05;19.30;55.10
4312;DHT22;2169;49.086;9.284;2023-06-26T05:40:32;19.40;55.10
4312;DHT22;2169;49.086;9.284;2023-06-26T05:43:02;19.50;55.10
4312;DHT22;2169;49.086;9.284;2023-06-26T05:45:29;19.70;55.00
4312;DHT22;2169;49.086;9.284;2023-06-26T05:47:56;19.80;55.40
4312;DHT22;2169;49.086;9.284;2023-06-26T05:50:23;20.00;54.70
4312;DHT22;2169;49.086;9.284;2023-06-26T05:52:51;20.20;54.60
4312;DHT22;2169;49.086;9.284;2023-06-26T05:55:19;20.40;54.40
4312;DHT22;2169;49.086;9.284;2023-06-26T05:57:47;20.60;54.20
4312;DHT22;2169;49.086;9.284;2023-06-26T06:00:16;20.80;54.00
4312;DHT22;2169;49.086;9.284;2023-06-26T06:02:43;21.10;53.90
4312;DHT22;2169;49.086;9.284;2023-06-26T06:05:10;21.30;53.60
4312;DHT22;2169;49.086;9.284;2023-06-26T06:07:37;21.60;53.50
4312;DHT22;2169;49.086;9.284;2023-06-26T06:10:05;21.80;53.30
4312;DHT22;2169;49.086;9.284;2023-06-26T06:12:32;22.10;53.10
4312;DHT22;2169;49.086;9.284;2023-06-26T06:14:58;22.30;52.80
4312;DHT22;2169;49.086;9.284;2023-06-26T06:17:27;22.60;52.50
4312;DHT22;2169;49.086;9.284;2023-06-26T06:19:54;22.80;52.00
4312;DHT22;2169;49.086;9.284;2023-06-26T06:22:21;23.10;51.80
4312;DHT22;2169;49.086;9.284;2023-06-26T06:24:48;23.30;51.50
4312;DHT22;2169;49.086;9.284;2023-06-26T06:27:15;23.60;51.20
4312;DHT22;2169;49.086;9.284;2023-06-26T06:29:42;23.80;50.80
4312;DHT22;2169;49.086;9.284;2023-06-26T06:32:10;24.10;50.50
4312;DHT22;2169;49.086;9.284;2023-06-26T06:34:40;24.40;50.20
4312;DHT22;2169;49.086;9.284;2023-06-26T06:37:07;24.60;49.60
4312;DHT22;2169;49.086;9.284;2023-06-26T06:39:34;24.80;49.20
4312;DHT22;2169;49.086;9.284;2023-06-26T06:42:01;25.10;48.90
4312;DHT22;2169;49.086;9.284;2023-06-26T06:44:28;25.30;48.50
4312;DHT22;2169;49.086;9.284;2023-06-26T06:46:55;25.50;47.80
4312;DHT22;2169;49.086;9.284;2023-06-26T06:49:22;25.70;47.50
4312;DHT22;2169;49.086;9.284;2023-06-26T06:51:51;25.90;47.00
4312;DHT22;2169;49.086;9.284;2023-06-26T06:54:18;26.20;46.40
4312;DHT22;2169;49.086;9.284;2023-06-26T06:56:46;26.40;45.90
4312;DHT22;2169;49.086;9.284;2023-06-26T06:59:12;26.60;45.30
4312;DHT22;2169;49.086;9.284;2023-06-26T07:01:40;26.80;44.70
4312;DHT22;2169;49.086;9.284;2023-06-26T07:04:07;27.00;44.30
4312;DHT22;2169;49.086;9.284;2023-06-26T07:06:34;27.20;43.80
4312;DHT22;2169;49.086;9.284;2023-06-26T07:09:02;27.40;43.40
4312;DHT22;2169;49.086;9.284;2023-06-26T07:11:29;27.60;43.10
4312;DHT22;2169;49.086;9.284;2023-06-26T07:13:56;27.70;42.20
4312;DHT22;2169;49.086;9.284;2023-06-26T07:16:23;27.90;41.80
4312;DHT22;2169;49.086;9.284;2023-06-26T07:18:50;28.10;41.40
4312;DHT22;2169;49.086;9.284;2023-06-26T07:21:17;28.30;41.00
4312;DHT22;2169;49.086;9.284;2023-06-26T07:23:44;28.50;40.90
4312;DHT22;2169;49.086;9.284;2023-06-26T07:26:14;28.70;40.60
4312;DHT22;2169;49.086;9.284;2023-06-26T07:28:41;28.90;40.20
4312;DHT22;2169;49.086;9.284;2023-06-26T07:31:08;29.10;40.00
4312;DHT22;2169;49.086;9.284;2023-06-26T07:33:35;29.20;39.70
4312;DHT22;2169;49.086;9.284;2023-06-26T07:36:02;29.30;39.00
4312;DHT22;2169;49.086;9.284;2023-06-26T07:38:29;29.40;38.90
4312;DHT22;2169;49.086;9.284;2023-06-26T07:40:56;29.50;38.70
4312;DHT22;2169;49.086;9.284;2023-06-26T07:43:24;29.60;38.40
4312;DHT22;2169;49.086;9.284;2023-06-26T07:45:51;29.70;38.00
4312;DHT22;2169;49.086;9.284;2023-06-26T07:48:18;29.80;37.90
4312;DHT22;2169;49.086;9.284;2023-06-26T07:50:45;29.90;37.80
4312;DHT22;2169;49.086;9.284;2023-06-26T07:53:14;29.90;37.60
4312;DHT22;2169;49.086;9.284;2023-06-26T07:55:42;30.10;37.40
4312;DHT22;2169;49.086;9.284;2023-06-26T07:58:09;30.20;37.20
4312;DHT22;2169;49.086;9.284;2023-06-26T08:00:40;30.30;36.90
4312;DHT22;2169;49.086;9.284;2023-06-26T08:03:07;30.40;36.50
4312;DHT22;2169;49.086;9.284;2023-06-26T08:05:34;30.50;36.10
4312;DHT22;2169;49.086;9.284;2023-06-26T08:08:02;30.50;35.70
4312;DHT22;2169;49.086;9.284;2023-06-26T08:10:29;30.60;35.70
4312;DHT22;2169;49.086;9.284;2023-06-26T08:12:56;30.70;35.40
4312;DHT22;2169;49.086;9.284;2023-06-26T08:15:23;30.70;35.00
4312;DHT22;2169;49.086;9.284;2023-06-26T08:17:52;30.80;35.10
4312;DHT22;2169;49.086;9.284;2023-06-26T08:20:19;30.90;34.80
4312;DHT22;2169;49.086;9.284;2023-06-26T08:22:46;31.00;34.80
4312;DHT22;2169;49.086;9.284;2023-06-26T08:25:14;31.10;34.60
4312;DHT22;2169;49.086;9.284;2023-06-26T08:27:41;31.20;34.70
4312;DHT22;2169;49.086;9.284;2023-06-26T08:30:09;31.30;34.60
4312;DHT22;2169;49.086;9.284;2023-06-26T08:32:36;31.40;34.50
4312;DHT22;2169;49.086;9.284;2023-06-26T08:35:05;31.50;34.30
4312;DHT22;2169;49.086;9.284;2023-06-26T08:37:32;31.60;34.20
4312;DHT22;2169;49.086;9.284;2023-06-26T08:39:59;31.70;34.10
4312;DHT22;2169;49.086;9.284;2023-06-26T08:42:27;31.70;34.00
4312;DHT22;2169;49.086;9.284;2023-06-26T08:44:54;31.80;33.90
4312;DHT22;2169;49.086;9.284;2023-06-26T08:47:21;31.90;33.70
4312;DHT22;2169;49.086;9.284;2023-06-26T08:49:53;32.00;33.60
4312;DHT22;2169;49.086;9.284;2023-06-26T08:52:35;32.10;33.60
4312;DHT22;2169;49.086;9.284;2023-06-26T08:55:02;32.20;33.50
4312;DHT22;2169;49.086;9.284;2023-06-26T08:57:32;32.30;33.30
4312;DHT22;2169;49.086;9.284;2023-06-26T09:00:01;32.30;33.20
4312;DHT22;2169;49.086;9.284;2023-06-26T09:02:28;32.40;33.70
4312;DHT22;2169;49.086;9.284;2023-06-26T09:04:55;32.50;33.00
4312;DHT22;2169;49.086;9.284;2023-06-26T09:07:22;32.60;32.80
4312;DHT22;2169;49.086;9.284;2023-06-26T09:09:51;32.60;32.60
4312;DHT22;2169;49.086;9.284;2023-06-26T09:12:17;32.80;32.50
4312;DHT22;2169;49.086;9.284;2023-06-26T09:14:45;32.80;32.30
4312;DHT22;2169;49.086;9.284;2023-06-26T09:17:13;32.90;32.20
4312;DHT22;2169;49.086;9.284;2023-06-26T09:19:40;33.00;31.90
4312;DHT22;2169;49.086;9.284;2023-06-26T09:22:11;33.10;31.90
4312;DHT22;2169;49.086;9.284;2023-06-26T09:24:38;33.20;31.80
4312;DHT22;2169;49.086;9.284;2023-06-26T09:27:09;33.20;31.60
4312;DHT22;2169;49.086;9.284;2023-06-26T09:29:36;33.30;31.40
4312;DHT22;2169;49.086;9.284;2023-06-26T09:32:04;33.40;31.50
4312;DHT22;2169;49.086;9.284;2023-06-26T09:34:31;33.40;31.20
4312;DHT22;2169;49.086;9.284;2023-06-26T09:36:59;33.50;31.10
4312;DHT22;2169;49.086;9.284;2023-06-26T09:39:30;33.50;30.90
4312;DHT22;2169;49.086;9.284;2023-06-26T09:41:58;33.50;31.40
4312;DHT22;2169;49.086;9.284;2023-06-26T09:44:30;33.50;30.80
4312;DHT22;2169;49.086;9.284;2023-06-26T09:46:57;33.50;30.60
4312;DHT22;2169;49.086;9.284;2023-06-26T09:49:24;33.50;30.60
4312;DHT22;2169;49.086;9.284;2023-06-26T09:51:51;33.50;30.50
4312;DHT22;2169;49.086;9.284;2023-06-26T09:54:21;33.50;30.40
4312;DHT22;2169;49.086;9.284;2023-06-26T09:56:49;33.50;30.60
4312;DHT22;2169;49.086;9.284;2023-06-26T09:59:16;33.50;30.60
4312;DHT22;2169;49.086;9.284;2023-06-26T10:01:45;33.40;30.40
4312;DHT22;2169;49.086;9.284;2023-06-26T10:04:13;33.30;30.70
4312;DHT22;2169;49.086;9.284;2023-06-26T10:06:45;33.30;31.00
4312;DHT22;2169;49.086;9.284;2023-06-26T10:09:13;33.30;31.10
4312;DHT22;2169;49.086;9.284;2023-06-26T10:11:46;33.20;31.30
4312;DHT22;2169;49.086;9.284;2023-06-26T10:14:14;33.20;31.50
4312;DHT22;2169;49.086;9.284;2023-06-26T10:16:44;33.20;31.30
4312;DHT22;2169;49.086;9.284;2023-06-26T10:19:13;33.10;31.20
4312;DHT22;2169;49.086;9.284;2023-06-26T10:21:42;33.00;31.50
4312;DHT22;2169;49.086;9.284;2023-06-26T10:24:10;33.00;31.70
4312;DHT22;2169;49.086;9.284;2023-06-26T10:26:44;33.00;31.40
4312;DHT22;2169;49.086;9.284;2023-06-26T10:29:11;33.10;31.50
4312;DHT22;2169;49.086;9.284;2023-06-26T10:31:40;33.10;31.80
4312;DHT22;2169;49.086;9.284;2023-06-26T10:34:12;33.10;31.80
4312;DHT22;2169;49.086;9.284;2023-06-26T10:36:39;33.10;31.70
4312;DHT22;2169;49.086;9.284;2023-06-26T10:39:07;33.20;31.70
4312;DHT22;2169;49.086;9.284;2023-06-26T10:41:43;33.10;31.80
4312;DHT22;2169;49.086;9.284;2023-06-26T10:44:11;33.20;32.00
4312;DHT22;2169;49.086;9.284;2023-06-26T10:46:51;33.20;32.20
4312;DHT22;2169;49.086;9.284;2023-06-26T10:49:21;33.30;32.50
4312;DHT22;2169;49.086;9.284;2023-06-26T10:51:51;33.20;32.60
4312;DHT22;2169;49.086;9.284;2023-06-26T10:54:20;33.20;32.70
4312;DHT22;2169;49.086;9.284;2023-06-26T10:56:48;33.30;32.90
4312;DHT22;2169;49.086;9.284;2023-06-26T10:59:17;33.30;33.20
4312;DHT22;2169;49.086;9.284;2023-06-26T11:01:45;33.40;33.10
4312;DHT22;2169;49.086;9.284;2023-06-26T11:04:13;33.40;32.90
4312;DHT22;2169;49.086;9.284;2023-06-26T11:06:46;33.30;32.90
4312;DHT22;2169;49.086;9.284;2023-06-26T11:09:17;33.30;33.20
4312;DHT22;2169;49.086;9.284;2023-06-26T11:11:58;33.20;33.50
4312;DHT22;2169;49.086;9.284;2023-06-26T11:14:30;33.10;33.60
4312;DHT22;2169;49.086;9.284;2023-06-26T11:16:58;33.00;33.70
4312;DHT22;2169;49.086;9.284;2023-06-26T11:19:26;32.90;33.90
4312;DHT22;2169;49.086;9.284;2023-06-26T11:22:01;32.90;34.20
4312;DHT22;2169;49.086;9.284;2023-06-26T11:24:30;32.80;34.40
4312;DHT22;2169;49.086;9.284;2023-06-26T11:27:00;32.80;34.80
4312;DHT22;2169;49.086;9.284;2023-06-26T11:29:27;32.80;34.80
4312;DHT22;2169;49.086;9.284;2023-06-26T11:31:59;32.80;34.80
4312;DHT22;2169;49.086;9.284;2023-06-26T11:34:30;32.80;34.70
4312;DHT22;2169;49.086;9.284;2023-06-26T11:36:58;32.80;34.50
4312;DHT22;2169;49.086;9.284;2023-06-26T11:39:28;32.80;34.70
4312;DHT22;2169;49.086;9.284;2023-06-26T11:41:56;32.80;34.60
4312;DHT22;2169;49.086;9.284;2023-06-26T11:44:23;32.80;34.60
4312;DHT22;2169;49.086;9.284;2023-06-26T11:46:52;32.80;34.80
4312;DHT22;2169;49.086;9.284;2023-06-26T11:49:21;32.80;34.90
4312;DHT22;2169;49.086;9.284;2023-06-26T11:51:51;32.80;35.00
4312;DHT22;2169;49.086;9.284;2023-06-26T11:54:25;32.90;35.20
4312;DHT22;2169;49.086;9.284;2023-06-26T11:56:56;32.90;35.00
4312;DHT22;2169;49.086;9.284;2023-06-26T11:59:24;32.90;35.00
4312;DHT22;2169;49.086;9.284;2023-06-26T12:01:58;32.90;35.10
4312;DHT22;2169;49.086;9.284;2023-06-26T12:04:25;32.90;35.30
4312;DHT22;2169;49.086;9.284;2023-06-26T12:06:53;32.90;35.90
4312;DHT22;2169;49.086;9.284;2023-06-26T12:09:25;32.90;35.30
4312;DHT22;2169;49.086;9.284;2023-06-26T12:11:53;33.00;35.40
4312;DHT22;2169;49.086;9.284;2023-06-26T12:14:22;33.00;35.40
4312;DHT22;2169;49.086;9.284;2023-06-26T12:16:51;33.00;35.40
4312;DHT22;2169;49.086;9.284;2023-06-26T12:19:24;33.00;35.40
4312;DHT22;2169;49.086;9.284;2023-06-26T12:21:51;33.00;35.60
4312;DHT22;2169;49.086;9.284;2023-06-26T12:24:19;32.90;35.70
4312;DHT22;2169;49.086;9.284;2023-06-26T12:26:50;32.90;35.70
4312;DHT22;2169;49.086;9.284;2023-06-26T12:29:20;33.00;35.80
4312;DHT22;2169;49.086;9.284;2023-06-26T12:31:50;33.00;36.00
4312;DHT22;2169;49.086;9.284;2023-06-26T12:34:19;33.10;36.10
4312;DHT22;2169;49.086;9.284;2023-06-26T12:36:47;33.10;36.10
4312;DHT22;2169;49.086;9.284;2023-06-26T12:39:16;33.10;36.20
4312;DHT22;2169;49.086;9.284;2023-06-26T12:41:49;33.10;36.20
4312;DHT22;2169;49.086;9.284;2023-06-26T12:44:17;33.10;36.20
4312;DHT22;2169;49.086;9.284;2023-06-26T12:46:46;33.00;36.30
4312;DHT22;2169;49.086;9.284;2023-06-26T12:49:13;33.00;36.20
4312;DHT22;2169;49.086;9.284;2023-06-26T12:51:41;33.10;36.20
4312;DHT22;2169;49.086;9.284;2023-06-26T12:54:08;33.10;36.20
4312;DHT22;2169;49.086;9.284;2023-06-26T12:56:35;33.10;36.30
4312;DHT22;2169;49.086;9.284;2023-06-26T12:59:04;33.10;36.20
4312;DHT22;2169;49.086;9.284;2023-06-26T13:01:31;33.20;36.10
4312;DHT22;2169;49.086;9.284;2023-06-26T13:03:58;33.20;35.90
4312;DHT22;2169;49.086;9.284;2023-06-26T13:06:25;33.30;35.90
4312;DHT22;2169;49.086;9.284;2023-06-26T13:08:52;33.20;35.80
4312;DHT22;2169;49.086;9.284;2023-06-26T13:11:19;33.20;35.50
4312;DHT22;2169;49.086;9.284;2023-06-26T13:13:47;33.20;35.40
4312;DHT22;2169;49.086;9.284;2023-06-26T13:16:15;33.30;35.50
4312;DHT22;2169;49.086;9.284;2023-06-26T13:18:44;33.30;35.30
4312;DHT22;2169;49.086;9.284;2023-06-26T13:21:11;33.30;34.90
4312;DHT22;2169;49.086;9.284;2023-06-26T13:23:38;33.20;34.80
4312;DHT22;2169;49.086;9.284;2023-06-26T13:26:05;33.20;34.60
4312;DHT22;2169;49.086;9.284;2023-06-26T13:28:32;33.20;34.30
4312;DHT22;2169;49.086;9.284;2023-06-26T13:30:59;33.20;34.10
4312;DHT22;2169;49.086;9.284;2023-06-26T13:33:27;33.30;34.20
4312;DHT22;2169;49.086;9.284;2023-06-26T13:35:54;33.30;34.00
4312;DHT22;2169;49.086;9.284;2023-06-26T13:38:21;33.30;33.70
4312;DHT22;2169;49.086;9.284;2023-06-26T13:40:50;33.30;33.70
4312;DHT22;2169;49.086;9.284;2023-06-26T13:43:17;33.30;33.40
4312;DHT22;2169;49.086;9.284;2023-06-26T13:45:44;33.40;33.40
4312;DHT22;2169;49.086;9.284;2023-06-26T13:48:11;33.30;33.10
4312;DHT22;2169;49.086;9.284;2023-06-26T13:50:39;33.30;33.00
4312;DHT22;2169;49.086;9.284;2023-06-26T13:53:06;33.30;32.60
4312;DHT22;2169;49.086;9.284;2023-06-26T13:55:34;33.30;32.40
4312;DHT22;2169;49.086;9.284;2023-06-26T13:58:03;33.30;32.40
4312;DHT22;2169;49.086;9.284;2023-06-26T14:00:31;33.30;32.40
4312;DHT22;2169;49.086;9.284;2023-06-26T14:02:58;33.40;32.30
4312;DHT22;2169;49.086;9.284;2023-06-26T14:05:25;33.30;31.80
4312;DHT22;2169;49.086;9.284;2023-06-26T14:07:54;33.30;31.60
4312;DHT22;2169;49.086;9.284;2023-06-26T14:10:22;33.30;31.60
4312;DHT22;2169;49.086;9.284;2023-06-26T14:12:49;33.30;31.50
4312;DHT22;2169;49.086;9.284;2023-06-26T14:15:16;33.30;31.10
4312;DHT22;2169;49.086;9.284;2023-06-26T14:17:43;33.30;30.90
4312;DHT22;2169;49.086;9.284;2023-06-26T14:20:11;33.30;30.80
4312;DHT22;2169;49.086;9.284;2023-06-26T14:22:38;33.30;30.50
4312;DHT22;2169;49.086;9.284;2023-06-26T14:25:07;33.30;30.30
4312;DHT22;2169;49.086;9.284;2023-06-26T14:27:35;33.30;30.10
4312;DHT22;2169;49.086;9.284;2023-06-26T14:30:02;33.10;30.00
4312;DHT22;2169;49.086;9.284;2023-06-26T14:32:29;33.10;30.00
4312;DHT22;2169;49.086;9.284;2023-06-26T14:34:56;33.00;30.00
4312;DHT22;2169;49.086;9.284;2023-06-26T14:37:24;32.90;30.50
4312;DHT22;2169;49.086;9.284;2023-06-26T14:39:51;32.90;30.00
4312;DHT22;2169;49.086;9.284;2023-06-26T14:42:19;32.90;30.00
4312;DHT22;2169;49.086;9.284;2023-06-26T14:44:46;32.90;30.00
4312;DHT22;2169;49.086;9.284;2023-06-26T14:47:15;32.90;30.10
4312;DHT22;2169;49.086;9.284;2023-06-26T14:49:42;32.90;30.00
4312;DHT22;2169;49.086;9.284;2023-06-26T14:52:09;32.90;29.90
4312;DHT22;2169;49.086;9.284;2023-06-26T14:54:36;32.80;29.90
4312;DHT22;2169;49.086;9.284;2023-06-26T14:57:03;32.90;30.00
4312;DHT22;2169;49.086;9.284;2023-06-26T14:59:37;32.80;29.80
4312;DHT22;2169;49.086;9.284;2023-06-26T15:02:06;32.90;30.00
4312;DHT22;2169;49.086;9.284;2023-06-26T15:04:33;32.80;30.00
4312;DHT22;2169;49.086;9.284;2023-06-26T15:07:00;32.80;30.00
4312;DHT22;2169;49.086;9.284;2023-06-26T15:09:27;32.80;30.00
4312;DHT22;2169;49.086;9.284;2023-06-26T15:11:54;32.70;29.90
4312;DHT22;2169;49.086;9.284;2023-06-26T15:14:20;32.70;30.00
4312;DHT22;2169;49.086;9.284;2023-06-26T15:16:49;32.80;30.00
4312;DHT22;2169;49.086;9.284;2023-06-26T15:19:16;32.70;30.40
4312;DHT22;2169;49.086;9.284;2023-06-26T15:21:43;32.70;30.00
4312;DHT22;2169;49.086;9.284;2023-06-26T15:24:10;32.70;30.00
4312;DHT22;2169;49.086;9.284;2023-06-26T15:26:36;32.60;30.00
4312;DHT22;2169;49.086;9.284;2023-06-26T15:29:03;32.60;30.00
4312;DHT22;2169;49.086;9.284;2023-06-26T15:31:30;32.60;30.10
4312;DHT22;2169;49.086;9.284;2023-06-26T15:33:59;32.60;30.10
4312;DHT22;2169;49.086;9.284;2023-06-26T15:36:26;32.60;30.20
4312;DHT22;2169;49.086;9.284;2023-06-26T15:38:53;32.50;30.30
4312;DHT22;2169;49.086;9.284;2023-06-26T15:41:20;32.50;30.20
4312;DHT22;2169;49.086;9.284;2023-06-26T15:43:47;32.30;30.10
4312;DHT22;2169;49.086;9.284;2023-06-26T15:46:14;32.30;30.10
4312;DHT22;2169;49.086;9.284;2023-06-26T15:48:41;32.20;30.10
4312;DHT22;2169;49.086;9.284;2023-06-26T15:51:12;32.10;30.20
4312;DHT22;2169;49.086;9.284;2023-06-26T15:53:40;32.10;30.20
4312;DHT22;2169;49.086;9.284;2023-06-26T15:56:08;32.00;30.10
4312;DHT22;2169;49.086;9.284;2023-06-26T15:58:36;31.90;30.30
4312;DHT22;2169;49.086;9.284;2023-06-26T16:01:07;31.80;29.70
4312;DHT22;2169;49.086;9.284;2023-06-26T16:03:33;31.80;29.40
4312;DHT22;2169;49.086;9.284;2023-06-26T16:06:01;31.70;29.10
4312;DHT22;2169;49.086;9.284;2023-06-26T16:08:29;31.60;29.00